Wetterdaten: Woche 18.07.16 - 24.07.16 (KW29)
Datum Zeit Temp. A. Temp. A. max Feuchte A. Luftdruck Regen Wind Richtung Sonnenschein ET UV Solar Taupunkt Windben
18.07.2016 00:00 14,5 C 14,5 C 85 % 1021,4 hPa 0,0 mm 0,0 km/h (0 Bft) W 0,00 h 0,000 mm 0,0 UV-I 0 W/m 12,0 C 0,0 km/h (0 Bft)
18.07.2016 01:00 15,1 C 15,1 C 84 % 1021,3 hPa 0,0 mm 0,6 km/h (0 Bft) W 0,00 h 0,000 mm 0,0 UV-I 0 W/m 12,4 C 1,8 km/h (1 Bft)
18.07.2016 02:00 14,1 C 14,1 C 86 % 1021,2 hPa 0,0 mm 2,1 km/h (1 Bft) S-SO 0,00 h 0,025 mm 0,0 UV-I 0 W/m 11,8 C 3,4 km/h (1 Bft)
18.07.2016 03:00 12,9 C 12,9 C 90 % 1021,0 hPa 0,0 mm 0,8 km/h (0 Bft) S 0,00 h 0,026 mm 0,0 UV-I 0 W/m 11,2 C 1,4 km/h (1 Bft)
18.07.2016 04:00 12,5 C 12,5 C 92 % 1020,9 hPa 0,0 mm 0,3 km/h (0 Bft) S 0,00 h 0,000 mm 0,0 UV-I 0 W/m 11,2 C 0,8 km/h (0 Bft)
18.07.2016 05:00 12,9 C 12,9 C 91 % 1020,8 hPa 0,0 mm 0,4 km/h (0 Bft) S 0,00 h 0,000 mm 0,0 UV-I 7 W/m 11,5 C 1,0 km/h (0 Bft)
18.07.2016 06:00 12,7 C 12,7 C 92 % 1021,0 hPa 0,0 mm 0,3 km/h (0 Bft) S-SO 0,30 h 0,000 mm 0,5 UV-I 55 W/m 11,4 C 0,9 km/h (0 Bft)
18.07.2016 07:00 15,4 C 15,4 C 88 % 1021,0 hPa 0,0 mm 0,3 km/h (0 Bft) S-SO 0,97 h 0,025 mm 1,0 UV-I 228 W/m 13,4 C 1,0 km/h (0 Bft)
18.07.2016 08:00 19,1 C 19,2 C 76 % 1021,0 hPa 0,0 mm 1,3 km/h (1 Bft) W 0,75 h 0,127 mm 2,0 UV-I 342 W/m 14,8 C 2,6 km/h (1 Bft)
18.07.2016 09:00 20,5 C 20,5 C 70 % 1020,9 hPa 0,0 mm 2,6 km/h (1 Bft) W-NW 0,68 h 0,203 mm 3,2 UV-I 459 W/m 14,9 C 4,3 km/h (1 Bft)
18.07.2016 10:00 21,3 C 21,3 C 68 % 1020,7 hPa 0,0 mm 3,2 km/h (1 Bft) NW 0,95 h 0,280 mm 4,8 UV-I 651 W/m 15,1 C 5,4 km/h (1 Bft)
18.07.2016 11:00 22,2 C 22,2 C 65 % 1020,6 hPa 0,0 mm 4,4 km/h (1 Bft) NW 1,00 h 0,381 mm 6,5 UV-I 823 W/m 15,3 C 7,1 km/h (2 Bft)
18.07.2016 12:00 22,9 C 23,0 C 66 % 1020,4 hPa 0,0 mm 6,4 km/h (2 Bft) NW 0,53 h 0,508 mm 6,0 UV-I 638 W/m 16,1 C 9,4 km/h (2 Bft)
18.07.2016 13:00 23,9 C 23,9 C 61 % 1020,3 hPa 0,0 mm 7,5 km/h (2 Bft) NW 0,95 h 0,432 mm 7,6 UV-I 961 W/m 15,9 C 10,4 km/h (2 Bft)
18.07.2016 14:00 23,8 C 23,9 C 61 % 1020,1 hPa 0,0 mm 6,7 km/h (2 Bft) W-NW 0,68 h 1,168 mm 5,6 UV-I 720 W/m 15,7 C 11,1 km/h (2 Bft)
18.07.2016 15:00 24,0 C 24,1 C 58 % 1019,8 hPa 0,0 mm 6,0 km/h (2 Bft) W-NW 0,50 h 0,000 mm 4,3 UV-I 542 W/m 15,2 C 10,1 km/h (2 Bft)
18.07.2016 16:00 24,2 C 24,3 C 55 % 1019,4 hPa 0,0 mm 6,2 km/h (2 Bft) NW 0,20 h 0,229 mm 2,9 UV-I 273 W/m 14,6 C 9,7 km/h (2 Bft)
18.07.2016 17:00 24,3 C 24,4 C 53 % 1019,3 hPa 0,0 mm 5,4 km/h (1 Bft) W-NW 0,00 h 0,203 mm 1,8 UV-I 124 W/m 14,2 C 9,1 km/h (2 Bft)
18.07.2016 18:00 24,2 C 24,2 C 55 % 1019,3 hPa 0,0 mm 4,8 km/h (1 Bft) NW 0,00 h 0,127 mm 1,3 UV-I 83 W/m 14,7 C 7,8 km/h (2 Bft)
18.07.2016 19:00 23,8 C 23,9 C 57 % 1019,3 hPa 0,0 mm 3,7 km/h (1 Bft) N-NW 0,38 h 0,101 mm 0,6 UV-I 87 W/m 14,7 C 5,6 km/h (1 Bft)
18.07.2016 20:00 21,8 C 21,8 C 66 % 1019,7 hPa 0,0 mm 2,0 km/h (1 Bft) O 0,02 h 0,078 mm 0,0 UV-I 33 W/m 15,0 C 3,3 km/h (1 Bft)
18.07.2016 21:00 18,5 C 18,6 C 77 % 1020,3 hPa 0,0 mm 0,7 km/h (0 Bft) SO 0,00 h 0,024 mm 0,0 UV-I 5 W/m 14,4 C 1,6 km/h (1 Bft)
18.07.2016 22:00 16,7 C 16,7 C 85 % 1020,5 hPa 0,0 mm 0,9 km/h (0 Bft) S-SO 0,00 h 0,000 mm 0,0 UV-I 0 W/m 14,1 C 2,0 km/h (1 Bft)
18.07.2016 23:00 15,7 C 15,8 C 89 % 1020,5 hPa 0,0 mm 0,0 km/h (0 Bft) N 0,00 h 0,025 mm 0,0 UV-I 0 W/m 13,9 C 0,3 km/h (0 Bft)
19.07.2016 00:00 15,0 C 15,1 C 91 % 1020,6 hPa 0,0 mm 0,0 km/h (0 Bft) N 0,00 h 0,000 mm 0,0 UV-I 0 W/m 13,6 C 0,1 km/h (0 Bft)
19.07.2016 01:00 14,7 C 14,7 C 92 % 1020,4 hPa 0,0 mm 0,1 km/h (0 Bft) W 0,00 h 0,000 mm 0,0 UV-I 0 W/m 13,3 C 0,5 km/h (0 Bft)
19.07.2016 02:00 14,5 C 14,5 C 92 % 1020,4 hPa 0,0 mm 0,0 km/h (0 Bft) N 0,00 h 0,000 mm 0,0 UV-I 0 W/m 13,2 C 0,1 km/h (0 Bft)
19.07.2016 03:00 14,2 C 14,2 C 93 % 1020,1 hPa 0,0 mm 0,0 km/h (0 Bft) N 0,00 h 0,000 mm 0,0 UV-I 0 W/m 13,0 C 0,0 km/h (0 Bft)
19.07.2016 04:00 13,4 C 13,4 C 95 % 1020,0 hPa 0,0 mm 0,0 km/h (0 Bft) N 0,00 h 0,000 mm 0,0 UV-I 0 W/m 12,5 C 0,0 km/h (0 Bft)
19.07.2016 05:00 12,9 C 13,0 C 95 % 1019,8 hPa 0,0 mm 0,0 km/h (0 Bft) N 0,02 h 0,000 mm 0,0 UV-I 9 W/m 12,2 C 0,0 km/h (0 Bft)
19.07.2016 06:00 13,2 C 13,3 C 95 % 1019,9 hPa 0,0 mm 0,0 km/h (0 Bft) N 0,28 h 0,000 mm 0,5 UV-I 55 W/m 12,4 C 0,0 km/h (0 Bft)
19.07.2016 07:00 15,8 C 15,8 C 91 % 1020,0 hPa 0,0 mm 0,0 km/h (0 Bft) N 1,00 h 0,025 mm 0,9 UV-I 214 W/m 14,2 C 0,0 km/h (0 Bft)
19.07.2016 08:00 18,9 C 18,9 C 82 % 1020,0 hPa 0,0 mm 0,3 km/h (0 Bft) NO 1,00 h 0,102 mm 2,1 UV-I 383 W/m 15,7 C 0,6 km/h (0 Bft)
19.07.2016 09:00 21,2 C 21,2 C 75 % 1019,9 hPa 0,0 mm 2,3 km/h (1 Bft) O-NO 1,00 h 0,229 mm 3,6 UV-I 552 W/m 16,6 C 3,8 km/h (1 Bft)
19.07.2016 10:00 22,9 C 22,9 C 68 % 1019,7 hPa 0,0 mm 4,4 km/h (1 Bft) N 1,00 h 0,330 mm 5,1 UV-I 700 W/m 16,5 C 6,9 km/h (2 Bft)
19.07.2016 11:00 23,7 C 23,7 C 64 % 1019,7 hPa 0,0 mm 5,4 km/h (1 Bft) NO 1,00 h 0,432 mm 6,5 UV-I 813 W/m 16,3 C 8,9 km/h (2 Bft)
19.07.2016 12:00 24,5 C 24,5 C 62 % 1019,5 hPa 0,0 mm 4,6 km/h (1 Bft) N 1,00 h 0,533 mm 7,5 UV-I 897 W/m 16,8 C 7,6 km/h (2 Bft)
19.07.2016 13:00 25,2 C 25,2 C 60 % 1019,3 hPa 0,0 mm 5,1 km/h (1 Bft) N 1,00 h 0,584 mm 7,8 UV-I 929 W/m 16,8 C 8,1 km/h (2 Bft)
19.07.2016 14:00 25,8 C 25,8 C 56 % 1018,9 hPa 0,0 mm 4,9 km/h (1 Bft) N 1,00 h 0,584 mm 7,1 UV-I 885 W/m 16,2 C 7,5 km/h (2 Bft)
19.07.2016 15:00 25,9 C 26,0 C 54 % 1018,5 hPa 0,0 mm 4,5 km/h (1 Bft) NW 1,00 h 0,586 mm 6,1 UV-I 799 W/m 15,7 C 7,3 km/h (2 Bft)
19.07.2016 16:00 25,8 C 25,9 C 54 % 1018,1 hPa 0,0 mm 5,0 km/h (1 Bft) O-NO 0,33 h 0,532 mm 3,2 UV-I 287 W/m 15,8 C 8,1 km/h (2 Bft)
19.07.2016 17:00 25,7 C 25,7 C 53 % 1017,8 hPa 0,0 mm 4,5 km/h (1 Bft) N-NW 0,00 h 0,229 mm 1,9 UV-I 52 W/m 15,4 C 7,0 km/h (2 Bft)
19.07.2016 18:00 25,4 C 25,4 C 53 % 1017,5 hPa 0,0 mm 4,3 km/h (1 Bft) N-NW 0,00 h 0,076 mm 1,1 UV-I 45 W/m 15,0 C 6,6 km/h (2 Bft)
19.07.2016 19:00 24,6 C 24,6 C 56 % 1017,4 hPa 0,0 mm 2,9 km/h (1 Bft) O-NO 0,28 h 0,076 mm 0,6 UV-I 77 W/m 15,1 C 4,7 km/h (1 Bft)
19.07.2016 20:00 22,3 C 22,3 C 64 % 1017,3 hPa 0,0 mm 1,2 km/h (1 Bft) O-SO 0,02 h 0,076 mm 0,0 UV-I 31 W/m 15,1 C 2,2 km/h (1 Bft)
19.07.2016 21:00 18,8 C 18,9 C 76 % 1017,5 hPa 0,0 mm 0,4 km/h (0 Bft) O-SO 0,00 h 0,026 mm 0,0 UV-I 5 W/m 14,6 C 1,0 km/h (0 Bft)
19.07.2016 22:00 17,2 C 17,2 C 83 % 1017,7 hPa 0,0 mm 0,1 km/h (0 Bft) O-SO 0,00 h 0,000 mm 0,0 UV-I 0 W/m 14,3 C 0,3 km/h (0 Bft)
19.07.2016 23:00 16,2 C 16,3 C 86 % 1017,5 hPa 0,0 mm 0,2 km/h (0 Bft) SO 0,00 h 0,025 mm 0,0 UV-I 0 W/m 13,9 C 0,5 km/h (0 Bft)
20.07.2016 00:00 15,8 C 15,8 C 87 % 1017,5 hPa 0,0 mm 0,3 km/h (0 Bft) O-SO 0,00 h 0,000 mm 0,0 UV-I 0 W/m 13,6 C 0,9 km/h (0 Bft)
20.07.2016 01:00 14,8 C 14,8 C 90 % 1017,3 hPa 0,0 mm 0,2 km/h (0 Bft) W 0,00 h 0,000 mm 0,0 UV-I 0 W/m 13,2 C 0,7 km/h (0 Bft)
20.07.2016 02:00 14,3 C 14,3 C 93 % 1017,2 hPa 0,0 mm 0,6 km/h (0 Bft) S 0,00 h 0,000 mm 0,0 UV-I 0 W/m 13,1 C 1,3 km/h (1 Bft)
20.07.2016 03:00 14,0 C 14,0 C 93 % 1017,1 hPa 0,0 mm 0,2 km/h (0 Bft) S 0,00 h 0,000 mm 0,0 UV-I 0 W/m 12,8 C 0,9 km/h (0 Bft)
20.07.2016 04:00 13,5 C 13,5 C 94 % 1017,1 hPa 0,0 mm 0,1 km/h (0 Bft) S 0,00 h 0,000 mm 0,0 UV-I 0 W/m 12,6 C 0,5 km/h (0 Bft)
20.07.2016 05:00 12,8 C 12,8 C 96 % 1017,1 hPa 0,0 mm 0,4 km/h (0 Bft) S 0,02 h 0,000 mm 0,0 UV-I 9 W/m 12,1 C 0,8 km/h (0 Bft)
20.07.2016 06:00 13,7 C 13,7 C 94 % 1017,2 hPa 0,0 mm 0,1 km/h (0 Bft) S 0,28 h 0,000 mm 0,5 UV-I 58 W/m 12,8 C 0,2 km/h (0 Bft)
20.07.2016 07:00 16,5 C 16,5 C 89 % 1016,9 hPa 0,0 mm 0,0 km/h (0 Bft) N 1,00 h 0,025 mm 1,0 UV-I 227 W/m 14,7 C 0,0 km/h (0 Bft)
20.07.2016 08:00 19,6 C 19,6 C 82 % 1016,4 hPa 0,0 mm 0,4 km/h (0 Bft) S 1,00 h 0,127 mm 2,2 UV-I 399 W/m 16,4 C 0,7 km/h (0 Bft)
20.07.2016 09:00 22,1 C 22,1 C 72 % 1016,2 hPa 0,0 mm 0,8 km/h (0 Bft) NO 1,00 h 0,229 mm 3,7 UV-I 569 W/m 16,8 C 1,8 km/h (1 Bft)
20.07.2016 10:00 23,7 C 23,7 C 66 % 1016,2 hPa 0,0 mm 3,1 km/h (1 Bft) NO 1,00 h 0,330 mm 5,2 UV-I 709 W/m 16,9 C 5,0 km/h (1 Bft)
20.07.2016 11:00 24,7 C 24,7 C 61 % 1016,2 hPa 0,0 mm 4,6 km/h (1 Bft) O-NO 1,00 h 0,457 mm 6,5 UV-I 815 W/m 16,7 C 7,4 km/h (2 Bft)
20.07.2016 12:00 25,6 C 25,6 C 56 % 1015,8 hPa 0,0 mm 3,5 km/h (1 Bft) O-NO 1,00 h 0,534 mm 7,5 UV-I 875 W/m 16,1 C 5,5 km/h (1 Bft)
20.07.2016 13:00 26,6 C 26,6 C 50 % 1015,4 hPa 0,0 mm 4,0 km/h (1 Bft) W-NW 1,00 h 0,584 mm 7,7 UV-I 891 W/m 15,2 C 6,3 km/h (2 Bft)
20.07.2016 14:00 27,1 C 27,1 C 48 % 1015,2 hPa 0,0 mm 4,7 km/h (1 Bft) N 1,00 h 0,610 mm 7,2 UV-I 855 W/m 15,2 C 7,8 km/h (2 Bft)
20.07.2016 15:00 27,6 C 27,6 C 47 % 1014,8 hPa 0,0 mm 5,6 km/h (1 Bft) W-NW 1,00 h 0,584 mm 6,2 UV-I 778 W/m 15,2 C 8,8 km/h (2 Bft)
20.07.2016 16:00 27,8 C 27,8 C 45 % 1014,5 hPa 0,0 mm 5,4 km/h (1 Bft) W-NW 0,33 h 0,559 mm 4,8 UV-I 256 W/m 14,7 C 8,6 km/h (2 Bft)
20.07.2016 17:00 27,6 C 27,6 C 45 % 1014,2 hPa 0,0 mm 4,2 km/h (1 Bft) W-NW 0,00 h 0,203 mm 0,0 UV-I 41 W/m 14,6 C 6,5 km/h (2 Bft)
20.07.2016 18:00 26,8 C 26,8 C 50 % 1013,9 hPa 0,0 mm 5,0 km/h (1 Bft) O-NO 0,00 h 0,076 mm 1,1 UV-I 40 W/m 15,6 C 8,0 km/h (2 Bft)
20.07.2016 19:00 25,4 C 25,4 C 56 % 1013,7 hPa 0,0 mm 2,1 km/h (1 Bft) O 0,30 h 0,076 mm 0,6 UV-I 73 W/m 15,9 C 4,1 km/h (1 Bft)
20.07.2016 20:00 22,7 C 22,8 C 65 % 1013,7 hPa 0,0 mm 0,8 km/h (0 Bft) O-SO 0,00 h 0,076 mm 0,0 UV-I 29 W/m 15,7 C 1,9 km/h (1 Bft)
20.07.2016 21:00 19,2 C 19,3 C 77 % 1013,9 hPa 0,0 mm 0,4 km/h (0 Bft) O-SO 0,00 h 0,026 mm 0,0 UV-I 0 W/m 15,0 C 1,2 km/h (1 Bft)
20.07.2016 22:00 18,2 C 18,3 C 80 % 1014,2 hPa 0,0 mm 0,0 km/h (0 Bft) N 0,00 h 0,000 mm 0,0 UV-I 0 W/m 14,8 C 0,3 km/h (0 Bft)
20.07.2016 23:00 17,9 C 17,9 C 79 % 1014,0 hPa 0,0 mm 0,4 km/h (0 Bft) W 0,00 h 0,025 mm 0,0 UV-I 0 W/m 14,2 C 1,5 km/h (1 Bft)
21.07.2016 00:00 16,5 C 16,5 C 83 % 1014,0 hPa 0,0 mm 0,2 km/h (0 Bft) N 0,00 h 0,000 mm 0,0 UV-I 0 W/m 13,6 C 0,8 km/h (0 Bft)
21.07.2016 01:00 15,8 C 15,8 C 83 % 1013,8 hPa 0,0 mm 0,2 km/h (0 Bft) N 0,00 h 0,025 mm 0,0 UV-I 0 W/m 13,0 C 0,9 km/h (0 Bft)
21.07.2016 02:00 15,7 C 15,7 C 81 % 1013,3 hPa 0,0 mm 0,6 km/h (0 Bft) W 0,00 h 0,026 mm 0,0 UV-I 0 W/m 12,5 C 1,5 km/h (1 Bft)
21.07.2016 03:00 16,1 C 16,1 C 75 % 1012,7 hPa 0,0 mm 0,6 km/h (0 Bft) N-NW 0,00 h 0,025 mm 0,0 UV-I 0 W/m 11,6 C 1,5 km/h (1 Bft)
21.07.2016 04:00 15,7 C 15,7 C 76 % 1012,3 hPa 0,0 mm 0,5 km/h (0 Bft) O-NO 0,00 h 0,026 mm 0,0 UV-I 0 W/m 11,4 C 1,4 km/h (1 Bft)
21.07.2016 05:00 15,7 C 15,8 C 77 % 1012,0 hPa 0,0 mm 0,2 km/h (0 Bft) N-NW 0,02 h 0,025 mm 0,0 UV-I 8 W/m 11,7 C 0,8 km/h (0 Bft)
21.07.2016 06:00 19,2 C 19,2 C 66 % 1013,7 hPa 0,0 mm 15,1 km/h (3 Bft) W 0,00 h 0,000 mm 0,0 UV-I 33 W/m 12,8 C 23,4 km/h (4 Bft)
21.07.2016 07:00 19,7 C 19,7 C 74 % 1014,8 hPa 0,0 mm 18,3 km/h (3 Bft) W 0,00 h 0,102 mm 0,0 UV-I 22 W/m 15,0 C 29,4 km/h (5 Bft)
21.07.2016 08:00 17,3 C 17,4 C 90 % 1015,7 hPa 2,0 mm 9,2 km/h (2 Bft) W 0,00 h 0,076 mm 0,5 UV-I 50 W/m 15,7 C 15,0 km/h (3 Bft)
21.07.2016 09:00 16,8 C 16,8 C 93 % 1015,6 hPa 0,4 mm 2,1 km/h (1 Bft) O 0,00 h 0,051 mm 1,0 UV-I 106 W/m 15,7 C 3,4 km/h (1 Bft)
21.07.2016 10:00 18,8 C 18,8 C 88 % 1014,8 hPa 0,0 mm 4,0 km/h (1 Bft) NO 0,22 h 0,050 mm 2,5 UV-I 316 W/m 16,8 C 6,4 km/h (2 Bft)
21.07.2016 11:00 20,0 C 20,0 C 84 % 1014,6 hPa 0,0 mm 4,3 km/h (1 Bft) O-NO 0,60 h 0,178 mm 4,7 UV-I 535 W/m 17,3 C 6,6 km/h (2 Bft)
21.07.2016 12:00 22,0 C 22,0 C 75 % 1014,1 hPa 0,0 mm 2,9 km/h (1 Bft) O-NO 0,92 h 0,330 mm 6,5 UV-I 789 W/m 17,3 C 4,8 km/h (1 Bft)
21.07.2016 13:00 24,2 C 24,2 C 64 % 1013,6 hPa 0,0 mm 5,1 km/h (1 Bft) W 1,00 h 0,458 mm 7,0 UV-I 826 W/m 16,8 C 8,5 km/h (2 Bft)
21.07.2016 14:00 25,0 C 25,0 C 62 % 1013,2 hPa 0,0 mm 7,0 km/h (2 Bft) W 0,65 h 0,533 mm 5,7 UV-I 660 W/m 17,2 C 11,1 km/h (2 Bft)
21.07.2016 15:00 24,9 C 24,9 C 62 % 1013,0 hPa 0,0 mm 6,8 km/h (2 Bft) W-NW 0,22 h 0,457 mm 3,4 UV-I 375 W/m 17,1 C 11,0 km/h (2 Bft)
21.07.2016 16:00 24,8 C 24,8 C 61 % 1013,0 hPa 0,0 mm 8,6 km/h (2 Bft) W-NW 0,25 h 0,305 mm 2,9 UV-I 363 W/m 16,6 C 13,6 km/h (3 Bft)
21.07.2016 17:00 24,4 C 24,4 C 63 % 1012,7 hPa 0,0 mm 9,3 km/h (2 Bft) W-NW 0,00 h 0,254 mm 1,8 UV-I 136 W/m 16,8 C 14,6 km/h (3 Bft)
21.07.2016 18:00 24,3 C 24,3 C 62 % 1012,8 hPa 0,0 mm 9,8 km/h (2 Bft) W-NW 0,00 h 0,152 mm 1,2 UV-I 73 W/m 16,6 C 15,8 km/h (3 Bft)
21.07.2016 19:00 23,4 C 23,4 C 64 % 1013,4 hPa 0,0 mm 9,0 km/h (2 Bft) W-NW 0,13 h 0,102 mm 0,7 UV-I 73 W/m 16,2 C 13,4 km/h (3 Bft)
21.07.2016 20:00 21,2 C 21,2 C 78 % 1014,2 hPa 0,0 mm 2,2 km/h (1 Bft) N-NW 0,08 h 0,102 mm 0,0 UV-I 18 W/m 17,1 C 3,8 km/h (1 Bft)
21.07.2016 21:00 19,6 C 19,6 C 85 % 1014,7 hPa 0,0 mm 1,4 km/h (1 Bft) NW 0,00 h 0,025 mm 0,0 UV-I 5 W/m 17,0 C 2,6 km/h (1 Bft)
21.07.2016 22:00 17,8 C 17,9 C 90 % 1014,7 hPa 0,0 mm 0,4 km/h (0 Bft) S-SO 0,00 h 0,000 mm 0,0 UV-I 0 W/m 16,2 C 0,7 km/h (0 Bft)
21.07.2016 23:00 17,0 C 17,0 C 93 % 1014,8 hPa 0,0 mm 0,0 km/h (0 Bft) S-SO 0,00 h 0,000 mm 0,0 UV-I 0 W/m 15,8 C 0,1 km/h (0 Bft)
22.07.2016 00:00 17,6 C 17,6 C 93 % 1014,9 hPa 0,0 mm 0,2 km/h (0 Bft) S-SO 0,00 h 0,000 mm 0,0 UV-I 0 W/m 16,4 C 0,5 km/h (0 Bft)
22.07.2016 01:00 17,6 C 17,6 C 91 % 1014,9 hPa 0,0 mm 0,0 km/h (0 Bft) N 0,00 h 0,000 mm 0,0 UV-I 0 W/m 16,0 C 0,0 km/h (0 Bft)
22.07.2016 02:00 16,4 C 16,4 C 93 % 1014,8 hPa 0,0 mm 0,5 km/h (0 Bft) S-SO 0,00 h 0,000 mm 0,0 UV-I 0 W/m 15,3 C 1,0 km/h (0 Bft)
22.07.2016 03:00 15,7 C 15,8 C 94 % 1014,2 hPa 0,0 mm 0,0 km/h (0 Bft) N 0,00 h 0,000 mm 0,0 UV-I 0 W/m 14,8 C 0,0 km/h (0 Bft)
22.07.2016 04:00 15,3 C 15,4 C 95 % 1014,0 hPa 0,0 mm 0,0 km/h (0 Bft) N 0,00 h 0,000 mm 0,0 UV-I 0 W/m 14,6 C 0,0 km/h (0 Bft)
22.07.2016 05:00 15,4 C 15,4 C 96 % 1014,0 hPa 0,0 mm 0,2 km/h (0 Bft) S-SO 0,10 h 0,000 mm 0,0 UV-I 10 W/m 14,7 C 0,5 km/h (0 Bft)
22.07.2016 06:00 15,2 C 15,2 C 96 % 1014,1 hPa 0,0 mm 0,1 km/h (0 Bft) S-SO 0,17 h 0,000 mm 0,5 UV-I 54 W/m 14,5 C 0,3 km/h (0 Bft)
22.07.2016 07:00 16,8 C 16,8 C 93 % 1013,9 hPa 0,0 mm 0,8 km/h (0 Bft) O 0,57 h 0,025 mm 0,8 UV-I 160 W/m 15,7 C 1,5 km/h (1 Bft)
22.07.2016 08:00 18,5 C 18,5 C 88 % 1013,8 hPa 0,0 mm 3,3 km/h (1 Bft) O-NO 0,75 h 0,102 mm 1,8 UV-I 306 W/m 16,5 C 5,2 km/h (1 Bft)
22.07.2016 09:00 20,3 C 20,3 C 84 % 1013,7 hPa 0,0 mm 4,7 km/h (1 Bft) N-NO 0,92 h 0,178 mm 3,2 UV-I 514 W/m 17,5 C 7,6 km/h (2 Bft)
22.07.2016 10:00 21,4 C 21,4 C 79 % 1013,3 hPa 0,0 mm 5,9 km/h (2 Bft) NO 1,00 h 0,305 mm 4,7 UV-I 672 W/m 17,7 C 8,9 km/h (2 Bft)
22.07.2016 11:00 22,5 C 22,5 C 75 % 1012,9 hPa 0,0 mm 6,7 km/h (2 Bft) NO 1,00 h 0,406 mm 6,0 UV-I 794 W/m 17,8 C 10,3 km/h (2 Bft)
22.07.2016 12:00 22,9 C 23,0 C 71 % 1012,4 hPa 0,0 mm 6,0 km/h (2 Bft) NO 0,57 h 0,483 mm 4,8 UV-I 568 W/m 17,5 C 9,9 km/h (2 Bft)
22.07.2016 13:00 23,7 C 23,8 C 69 % 1012,0 hPa 0,0 mm 6,1 km/h (2 Bft) O-NO 0,85 h 0,355 mm 5,8 UV-I 675 W/m 17,7 C 10,4 km/h (2 Bft)
22.07.2016 14:00 24,2 C 24,2 C 65 % 1011,5 hPa 0,0 mm 6,9 km/h (2 Bft) O-NO 0,97 h 0,432 mm 5,4 UV-I 645 W/m 17,1 C 12,3 km/h (3 Bft)
22.07.2016 15:00 24,1 C 24,2 C 65 % 1011,3 hPa 0,0 mm 6,8 km/h (2 Bft) NO 0,82 h 0,432 mm 3,9 UV-I 478 W/m 17,1 C 11,2 km/h (2 Bft)
22.07.2016 16:00 23,2 C 23,3 C 69 % 1011,4 hPa 0,0 mm 4,5 km/h (1 Bft) NO 0,00 h 0,330 mm 1,6 UV-I 137 W/m 17,2 C 7,8 km/h (2 Bft)
22.07.2016 17:00 18,0 C 18,2 C 82 % 1013,2 hPa 16,8 mm 6,2 km/h (2 Bft) SW 0,00 h 0,102 mm 0,0 UV-I 5 W/m 14,9 C 11,0 km/h (2 Bft)
22.07.2016 18:00 15,2 C 15,2 C 95 % 1014,2 hPa 4,6 mm 1,2 km/h (1 Bft) O-NO 0,00 h 0,025 mm 0,0 UV-I 10 W/m 14,4 C 2,4 km/h (1 Bft)
22.07.2016 19:00 15,7 C 15,7 C 95 % 1014,0 hPa 0,2 mm 0,0 km/h (0 Bft) N 0,00 h 0,000 mm 0,0 UV-I 31 W/m 14,9 C 0,0 km/h (0 Bft)
22.07.2016 20:00 15,5 C 15,5 C 95 % 1013,7 hPa 0,0 mm 0,1 km/h (0 Bft) W-SW 0,00 h 0,025 mm 0,0 UV-I 21 W/m 14,8 C 0,3 km/h (0 Bft)
22.07.2016 21:00 15,2 C 15,2 C 95 % 1013,5 hPa 0,0 mm 1,6 km/h (1 Bft) SW 0,00 h 0,000 mm 0,0 UV-I 0 W/m 14,4 C 3,2 km/h (1 Bft)
22.07.2016 22:00 14,7 C 14,8 C 96 % 1014,1 hPa 0,0 mm 0,7 km/h (0 Bft) SW 0,00 h 0,000 mm 0,0 UV-I 0 W/m 14,1 C 1,7 km/h (1 Bft)
22.07.2016 23:00 14,8 C 14,8 C 96 % 1014,6 hPa 0,0 mm 1,8 km/h (1 Bft) SO 0,00 h 0,000 mm 0,0 UV-I 0 W/m 14,1 C 3,3 km/h (1 Bft)
23.07.2016 00:00 14,9 C 14,9 C 96 % 1015,0 hPa 0,0 mm 0,1 km/h (0 Bft) S-SO 0,00 h 0,000 mm 0,0 UV-I 0 W/m 14,3 C 0,4 km/h (0 Bft)
23.07.2016 01:00 15,0 C 15,0 C 97 % 1014,9 hPa 0,0 mm 0,2 km/h (0 Bft) S-SW 0,00 h 0,000 mm 0,0 UV-I 0 W/m 14,5 C 0,5 km/h (0 Bft)
23.07.2016 02:00 14,9 C 14,9 C 97 % 1014,9 hPa 0,0 mm 0,1 km/h (0 Bft) S-SW 0,00 h 0,000 mm 0,0 UV-I 0 W/m 14,4 C 0,3 km/h (0 Bft)
23.07.2016 03:00 14,9 C 14,9 C 97 % 1015,0 hPa 0,2 mm 0,1 km/h (0 Bft) N 0,00 h 0,000 mm 0,0 UV-I 0 W/m 14,4 C 0,2 km/h (0 Bft)
23.07.2016 04:00 14,8 C 14,8 C 97 % 1014,8 hPa 0,0 mm 0,9 km/h (0 Bft) S 0,00 h 0,000 mm 0,0 UV-I 0 W/m 14,3 C 1,5 km/h (1 Bft)
23.07.2016 05:00 14,2 C 14,2 C 97 % 1014,8 hPa 0,0 mm 0,1 km/h (0 Bft) N 0,10 h 0,000 mm 0,0 UV-I 9 W/m 13,6 C 0,3 km/h (0 Bft)
23.07.2016 06:00 14,4 C 14,4 C 97 % 1014,7 hPa 0,0 mm 0,2 km/h (0 Bft) W-NW 0,32 h 0,000 mm 0,0 UV-I 63 W/m 13,9 C 0,4 km/h (0 Bft)
23.07.2016 07:00 16,2 C 16,2 C 94 % 1014,9 hPa 0,0 mm 0,6 km/h (0 Bft) SW 0,92 h 0,025 mm 0,8 UV-I 182 W/m 15,2 C 1,4 km/h (1 Bft)
23.07.2016 08:00 18,1 C 18,1 C 89 % 1015,3 hPa 0,0 mm 2,0 km/h (1 Bft) S-SO 1,00 h 0,102 mm 1,8 UV-I 351 W/m 16,3 C 3,3 km/h (1 Bft)
23.07.2016 09:00 19,6 C 19,7 C 83 % 1015,3 hPa 0,0 mm 1,9 km/h (1 Bft) W-NW 0,58 h 0,203 mm 2,6 UV-I 400 W/m 16,7 C 3,1 km/h (1 Bft)
23.07.2016 10:00 20,4 C 20,5 C 80 % 1015,4 hPa 0,0 mm 2,9 km/h (1 Bft) O-NO 0,78 h 0,229 mm 4,1 UV-I 591 W/m 16,9 C 4,5 km/h (1 Bft)
23.07.2016 11:00 21,2 C 21,2 C 77 % 1015,3 hPa 0,0 mm 2,4 km/h (1 Bft) O-NO 0,73 h 0,330 mm 4,1 UV-I 489 W/m 16,9 C 3,8 km/h (1 Bft)
23.07.2016 12:00 22,1 C 22,1 C 77 % 1015,2 hPa 0,0 mm 2,9 km/h (1 Bft) NO 0,82 h 0,305 mm 5,3 UV-I 654 W/m 17,8 C 4,8 km/h (1 Bft)
23.07.2016 13:00 22,2 C 22,2 C 76 % 1015,3 hPa 0,0 mm 3,8 km/h (1 Bft) NW 0,05 h 0,406 mm 2,4 UV-I 277 W/m 17,7 C 5,8 km/h (2 Bft)
23.07.2016 14:00 21,9 C 21,9 C 78 % 1015,4 hPa 0,0 mm 2,6 km/h (1 Bft) O-NO 0,00 h 0,178 mm 1,5 UV-I 161 W/m 17,9 C 4,2 km/h (1 Bft)
23.07.2016 15:00 18,1 C 18,3 C 85 % 1015,9 hPa 21,2 mm 5,3 km/h (1 Bft) S 0,00 h 0,102 mm 0,6 UV-I 33 W/m 15,5 C 8,7 km/h (2 Bft)
23.07.2016 16:00 15,8 C 15,8 C 94 % 1016,0 hPa 1,2 mm 3,2 km/h (1 Bft) S 0,00 h 0,025 mm 1,0 UV-I 111 W/m 14,8 C 5,4 km/h (1 Bft)
23.07.2016 17:00 17,4 C 17,4 C 94 % 1015,7 hPa 0,0 mm 1,6 km/h (1 Bft) S 0,00 h 0,051 mm 1,6 UV-I 187 W/m 16,4 C 3,1 km/h (1 Bft)
23.07.2016 18:00 17,7 C 17,7 C 94 % 1015,7 hPa 0,0 mm 0,8 km/h (0 Bft) S 0,00 h 0,101 mm 1,0 UV-I 125 W/m 16,7 C 1,6 km/h (1 Bft)
23.07.2016 19:00 18,0 C 18,0 C 92 % 1016,0 hPa 0,0 mm 2,9 km/h (1 Bft) W-SW 0,00 h 0,077 mm 0,6 UV-I 44 W/m 16,6 C 5,2 km/h (1 Bft)
23.07.2016 20:00 17,1 C 17,1 C 93 % 1016,4 hPa 2,6 mm 3,1 km/h (1 Bft) SW 0,00 h 0,025 mm 0,0 UV-I 6 W/m 16,0 C 5,4 km/h (1 Bft)
23.07.2016 21:00 16,4 C 16,4 C 95 % 1017,1 hPa 1,0 mm 1,8 km/h (1 Bft) W-SW 0,00 h 0,000 mm 0,0 UV-I 0 W/m 15,5 C 3,4 km/h (1 Bft)
23.07.2016 22:00 15,9 C 15,9 C 96 % 1017,6 hPa 0,0 mm 0,7 km/h (0 Bft) S 0,00 h 0,000 mm 0,0 UV-I 0 W/m 15,3 C 1,2 km/h (1 Bft)
23.07.2016 23:00 15,5 C 15,5 C 96 % 1018,1 hPa 0,0 mm 0,9 km/h (0 Bft) S-SO 0,00 h 0,000 mm 0,0 UV-I 0 W/m 14,9 C 1,4 km/h (1 Bft)
24.07.2016 00:00 15,2 C 15,3 C 97 % 1018,2 hPa 0,0 mm 0,3 km/h (0 Bft) O-NO 0,00 h 0,000 mm 0,0 UV-I 0 W/m 14,7 C 0,7 km/h (0 Bft)
24.07.2016 01:00 15,2 C 15,2 C 97 % 1018,2 hPa 0,0 mm 0,1 km/h (0 Bft) W-SW 0,00 h 0,000 mm 0,0 UV-I 0 W/m 14,7 C 0,3 km/h (0 Bft)
24.07.2016 02:00 15,1 C 15,1 C 97 % 1017,8 hPa 0,0 mm 0,0 km/h (0 Bft) N 0,00 h 0,000 mm 0,0 UV-I 0 W/m 14,6 C 0,0 km/h (0 Bft)
24.07.2016 03:00 14,7 C 14,7 C 97 % 1017,7 hPa 0,0 mm 0,2 km/h (0 Bft) W 0,00 h 0,000 mm 0,0 UV-I 0 W/m 14,2 C 0,4 km/h (0 Bft)
24.07.2016 04:00 14,6 C 14,7 C 97 % 1017,8 hPa 0,0 mm 0,7 km/h (0 Bft) W 0,00 h 0,000 mm 0,0 UV-I 0 W/m 14,2 C 1,4 km/h (1 Bft)
24.07.2016 05:00 14,3 C 14,3 C 97 % 1017,6 hPa 0,0 mm 0,9 km/h (0 Bft) SO 0,02 h 0,000 mm 0,0 UV-I 8 W/m 13,8 C 2,0 km/h (1 Bft)
24.07.2016 06:00 14,1 C 14,2 C 97 % 1017,7 hPa 0,0 mm 0,0 km/h (0 Bft) N 0,17 h 0,000 mm 0,0 UV-I 41 W/m 13,7 C 0,0 km/h (0 Bft)
24.07.2016 07:00 15,2 C 15,2 C 96 % 1017,8 hPa 0,0 mm 0,4 km/h (0 Bft) N-NW 0,55 h 0,025 mm 0,7 UV-I 155 W/m 14,6 C 0,7 km/h (0 Bft)
24.07.2016 08:00 17,5 C 17,5 C 91 % 1017,9 hPa 0,0 mm 1,3 km/h (1 Bft) W-NW 0,97 h 0,077 mm 1,8 UV-I 337 W/m 16,1 C 2,5 km/h (1 Bft)
24.07.2016 09:00 19,2 C 19,2 C 85 % 1018,0 hPa 0,0 mm 2,2 km/h (1 Bft) N-NW 0,80 h 0,177 mm 3,0 UV-I 441 W/m 16,5 C 3,7 km/h (1 Bft)
24.07.2016 10:00 19,7 C 19,8 C 83 % 1018,0 hPa 0,0 mm 3,1 km/h (1 Bft) W 0,28 h 0,254 mm 3,0 UV-I 348 W/m 16,7 C 5,1 km/h (1 Bft)
24.07.2016 11:00 20,3 C 20,4 C 80 % 1017,8 hPa 0,0 mm 2,7 km/h (1 Bft) N 0,25 h 0,204 mm 3,9 UV-I 425 W/m 16,8 C 4,5 km/h (1 Bft)
24.07.2016 12:00 21,6 C 21,7 C 74 % 1017,5 hPa 0,0 mm 4,0 km/h (1 Bft) N 0,82 h 0,279 mm 6,8 UV-I 888 W/m 16,8 C 6,5 km/h (2 Bft)
24.07.2016 13:00 22,2 C 22,3 C 73 % 1017,5 hPa 0,0 mm 4,4 km/h (1 Bft) NW 0,20 h 0,508 mm 4,6 UV-I 465 W/m 17,0 C 6,9 km/h (2 Bft)
24.07.2016 14:00 22,6 C 22,6 C 70 % 1017,4 hPa 0,0 mm 3,5 km/h (1 Bft) N 0,30 h 0,305 mm 5,1 UV-I 528 W/m 16,8 C 5,9 km/h (2 Bft)
24.07.2016 15:00 23,5 C 23,5 C 68 % 1017,0 hPa 0,0 mm 4,6 km/h (1 Bft) N 0,70 h 0,355 mm 5,1 UV-I 675 W/m 17,1 C 7,4 km/h (2 Bft)
24.07.2016 16:00 22,4 C 22,4 C 72 % 1016,5 hPa 0,0 mm 2,7 km/h (1 Bft) O-NO 0,00 h 0,407 mm 2,1 UV-I 187 W/m 17,1 C 4,7 km/h (1 Bft)
24.07.2016 17:00 22,4 C 22,5 C 73 % 1016,2 hPa 0,0 mm 2,4 km/h (1 Bft) O 0,00 h 0,127 mm 1,7 UV-I 153 W/m 17,4 C 4,1 km/h (1 Bft)
24.07.2016 18:00 21,8 C 21,9 C 75 % 1016,1 hPa 0,0 mm 1,2 km/h (1 Bft) O-SO 0,00 h 0,101 mm 1,0 UV-I 81 W/m 17,2 C 2,5 km/h (1 Bft)
24.07.2016 19:00 20,2 C 20,2 C 84 % 1016,4 hPa 0,0 mm 1,7 km/h (1 Bft) O-SO 0,00 h 0,051 mm 0,0 UV-I 43 W/m 17,4 C 2,8 km/h (1 Bft)
24.07.2016 20:00 18,9 C 18,9 C 91 % 1016,5 hPa 0,0 mm 0,5 km/h (0 Bft) S-SW 0,02 h 0,026 mm 0,0 UV-I 12 W/m 17,4 C 1,3 km/h (1 Bft)
24.07.2016 21:00 18,6 C 18,6 C 90 % 1017,0 hPa 0,0 mm 1,3 km/h (1 Bft) S-SW 0,00 h 0,000 mm 0,0 UV-I 0 W/m 16,9 C 2,7 km/h (1 Bft)
24.07.2016 22:00 18,1 C 18,1 C 92 % 1017,2 hPa 0,2 mm 1,9 km/h (1 Bft) W-SW 0,00 h 0,000 mm 0,0 UV-I 0 W/m 16,7 C 3,5 km/h (1 Bft)
24.07.2016 23:00 17,3 C 17,4 C 94 % 1017,7 hPa 3,4 mm 2,0 km/h (1 Bft) SW 0,00 h 0,000 mm 0,0 UV-I 0 W/m 16,3 C 3,7 km/h (1 Bft)
Min-Datum _ 18.07.16 18.07.16 20.07.16 22.07.16 - 24.07.16 - - - - - 18.07.16 24.07.16
_ Min-Zeit 04:12 04:03 17:04 16:00 - 22:00 - - - - - 04:00 22:00
Minimum _ 12,1 C 12,2 C 42 % 1011,1 hPa - 0,0 km/h (0 Bft) - - - - - 10,7 C 0,0 km/h (0 Bft)
Max-Datum _ 20.07.16 20.07.16 24.07.16 18.07.16 23.07.16 21.07.16 - 18.07.16 20.07.16 18.07.16 24.07.16 22.07.16 21.07.16
_ Max-Zeit 16:11 16:11 07:00 00:50 15:33 07:08 - 13:44 14:00 13:14 13:45 13:21 07:17
Maximum _ 28,3 C 28,3 C 97 % 1021,6 hPa 21,2 mm 26,9 km/h
W (4 Bft)
- 0,07 h 0,610 mm 8,6 UV-I 1118 W/m 18,8 C 46,7 km/h
W-SW (6 Bft)
Durchschnitt _ 19,1 C 19,1 C 80 % 1016,5 hPa #53,8 mm 2,5 km/h (1 Bft) NW #49:56 h #24,485 mm 3,4 UV-I 222 W/m 15,2 C 4,3 km/h (1 Bft)